Flight Track Log - Related Links

Times and Time Zones

All times are in EDT time to prevent confusion due to time zone crossing. See the EGF4383 flight status page for this flight to view local times or setup timezone preferences in your user account.

Time Position Orientation Groundspeed Altitude Reporting Facility
EDT Latitude Longitude Course Direction KTS MPH feet Rate Location/Type
05:07PM 38.1500 -78.4500 298° West 149 171 1,200  Level Potomac TRACON
05:08PM 38.2000 -78.4667 345° North 217 250 3,900 2,564 Climbing Potomac TRACON
05:08PM 38.2192 -78.5122 298° West 220 253 5,900 2,378 Climbing Washington Center
05:09PM 38.2477 -78.7763 293° West  Level FlightAware Approximate
05:10PM 38.2927 -78.8829 299° West  Level FlightAware Approximate
05:10PM 38.2836 -78.6867 295° West 273 314 10,400  Level Washington Center
05:11PM 38.3375 -78.9899 298° West  Level FlightAware Approximate
05:11PM 38.3164 -78.7833 293° West 278 320 12,000  Level Washington Center
05:12PM 38.3821 -79.0970 298° West  Level FlightAware Approximate
05:12PM 38.3572 -78.8936 295° West 312 359 13,600  Level Washington Center
05:13PM 38.3942 -78.9933 295° West 341 392 15,300 1,700 Climbing Washington Center
05:14PM 38.4325 -79.1089 293° West 346 398 17,000 1,450 Climbing Washington Center
05:15PM 38.4728 -79.2222 294° West 346 398 18,200 1,600 Climbing Washington Center
05:16PM 38.5150 -79.3464 294° West 351 404 20,200 1,850 Climbing Washington Center
05:17PM 38.5572 -79.4628 295° West 351 404 21,900 1,400 Climbing Washington Center
05:18PM 38.5969 -79.5817 293° West 361 415 23,000 950 Climbing Washington Center
05:19PM 38.6386 -79.7061 293° West 366 421 23,800 500 Climbing Washington Center
05:20PM 38.6806 -79.8228 295° West 382 440 24,000 980 Climbing Washington Center
05:23PM 38.7853 -80.1344 293° West 396 456 27,100 1,353 Climbing Indianapolis Center
05:24PM 38.8272 -80.2592 293° West 383 441 28,600 1,452 Climbing Indianapolis Center
05:25PM 38.8689 -80.3814 294° West 377 434 30,100 1,403 Climbing Indianapolis Center
05:26PM 38.9106 -80.5028 294° West 372 428 31,500 1,355 Climbing Indianapolis Center
05:27PM 38.9511 -80.6261 293° West 375 432 32,900 1,415 Climbing Indianapolis Center
05:28PM 39.0014 -80.7772 293° West 382 440 34,400 1,220 Climbing Indianapolis Center
05:29PM 39.0508 -80.9006 297° West 388 447 35,400 774 Climbing Indianapolis Center
05:30PM 39.1100 -81.0208 302° West 397 457 36,000 290 Climbing Indianapolis Center
05:31PM 39.1714 -81.1469 302° West 416 479 36,000  Level Indianapolis Center
05:32PM 39.2308 -81.2725 301° West 414 476 36,000  Level Indianapolis Center
05:33PM 39.2906 -81.3989 301° West 416 479 36,000  Level Indianapolis Center
05:34PM 39.3625 -81.5517 301° West 418 481 36,000  Level Indianapolis Center
05:35PM 39.4233 -81.6775 302° West 415 478 36,000  Level Indianapolis Center
05:36PM 39.4833 -81.8069 301° West 419 482 36,000  Level Indianapolis Center
05:37PM 39.5422 -81.9350 301° West 416 479 36,000  Level Indianapolis Center
05:38PM 39.6017 -82.0631 301° West 415 478 36,000  Level Indianapolis Center
05:39PM 39.6667 -82.2033 301° West 420 483 36,000  Level Indianapolis Center
05:40PM 39.7267 -82.3333 301° West 418 481 36,000  Level Indianapolis Center
05:41PM 39.7869 -82.4639 301° West 418 481 36,000  Level Indianapolis Center
05:42PM 39.8461 -82.5939 301° West 415 478 36,000  Level Indianapolis Center
05:43PM 39.9156 -82.7464 301° West 417 480 36,000  Level Indianapolis Center
05:44PM 39.9742 -82.8772 300° West 417 480 36,000  Level Indianapolis Center
05:45PM 40.0339 -83.0078 301° West 417 480 36,000  Level Indianapolis Center
05:46PM 40.0917 -83.1386 300° West 417 480 36,000  Level Indianapolis Center
05:48PM 40.1503 -83.2689 301° West 416 479 36,000  Level Indianapolis Center
05:49PM 40.2078 -83.3989 300° West 414 476 36,000  Level Indianapolis Center
05:50PM 40.2750 -83.5489 300° West 409 471 36,000  Level Indianapolis Center
05:51PM 40.3317 -83.6794 300° West 411 473 36,000  Level Indianapolis Center
05:52PM 40.3881 -83.8086 300° West 408 470 36,000  Level Indianapolis Center
05:53PM 40.4442 -83.9375 300° West 405 466 36,000  Level Indianapolis Center
05:54PM 40.5008 -84.0667 300° West 405 466 36,000  Level Indianapolis Center
05:55PM 40.5575 -84.1956 300° West 405 466 36,000  Level Indianapolis Center
05:56PM 40.6142 -84.3247 300° West 405 466 36,000 -389 Level Indianapolis Center
05:57PM 40.6617 -84.4328 300° West 405 466 35,300 -889 Descending Chicago Center
05:58PM 40.7167 -84.5658 299° West 412 474 34,400 -1,016 Descending Chicago Center
05:59PM 40.7736 -84.6983 300° West 415 478 33,200 -1,113 Descending Chicago Center
06:00PM 40.8294 -84.8264 300° West 408 470 32,100 -1,065 Descending Chicago Center
06:01PM 40.8908 -84.9789 298° West 395 455 31,000 -532 Descending Chicago Center
06:02PM 40.9453 -85.1042 300° West 393 452 31,000  Level Chicago Center
06:03PM 41.0053 -85.2300 302° West 400 460 31,000 -339 Level Chicago Center
06:04PM 41.0814 -85.3422 312° West 408 470 30,300 -919 Descending Chicago Center
06:05PM 41.1436 -85.4733 302° West 423 487 29,100 -1,258 Descending Chicago Center
06:06PM 41.1803 -85.6203 288° West 419 482 27,700 -1,440 Descending Chicago Center
06:07PM 41.2164 -85.7681 288° West 419 482 26,100 -1,296 Descending Chicago Center
06:08PM 41.2606 -85.9486 288° West 425 489 25,000 -532 Descending Chicago Center
06:09PM 41.2989 -86.0967 289° West 423 487 25,000  Level Chicago Center
06:10PM 41.3347 -86.2428 288° West 418 481 25,000 -484 Level Chicago Center
06:11PM 41.3711 -86.3894 288° West 416 479 24,000 -1,645 Descending Chicago Center
06:12PM 41.4081 -86.5333 289° West 413 475 21,600 -2,371 Descending Chicago Center
06:13PM 41.4403 -86.6697 288° West 393 452 19,100 -2,468 Descending Chicago Center
06:14PM 41.4803 -86.8242 289° West 382 440 16,500 -2,371 Descending Chicago Center
06:15PM 41.5100 -86.9525 287° West 368 423 14,200 -1,935 Descending Chicago Center
06:16PM 41.5411 -87.0758 289° West 355 409 12,500 -1,269 Descending Chicago Center
06:17PM 41.5667 -87.1667 291° West 345 397 12,000 -235 Descending Chicago TRACON
06:18PM 41.6000 -87.2833 291° West 349 402 12,100 -73 Climbing Chicago TRACON
06:18PM 41.6297 -87.3256 313° West 351 404 11,900 -706 Descending Chicago Center
06:19PM 41.6911 -87.4267 309° West 353 406 11,100 -864 Descending Chicago Center
06:20PM 41.7506 -87.5244 309° West 344 396 10,100 -581 Descending Chicago Center
06:21PM 41.8106 -87.6225 309° West 344 396 9,900 -138 Descending Chicago Center
06:22PM 41.8333 -87.6667 305° West 322 371 9,900 -847 Level Chicago TRACON
06:23PM 41.8667 -87.7667 294° West 265 305 8,700 -1,100 Descending Chicago TRACON
06:24PM 41.8667 -87.8667 270° West 263 303 7,700 -950 Descending Chicago TRACON
06:24PM 41.8739 -87.9172 281° West 254 292 7,100 -700 Descending Chicago Center
06:25PM 41.8833 -87.9500 291° West 235 270 7,000 -152 Descending Chicago TRACON
06:26PM 41.8833 -88.0333 270° West 233 268 6,900 -550 Descending Chicago TRACON
06:27PM 41.8833 -88.1167 270° West 231 266 5,900 -944 Descending Chicago TRACON
06:28PM 41.8867 -88.1872 274° West 232 267 5,200 -545 Descending Chicago Center
06:29PM 41.8892 -88.2661 272° West 226 260 4,900 -387 Descending Chicago Center
06:30PM 41.9331 -88.2919 336° Northwest 213 245 4,400 -484 Descending Chicago Center
06:31PM 41.9658 -88.2533 41° Northeast 191 220 3,900 -242 Descending Chicago Center
06:32PM 41.9683 -88.1931 87° East 175 201 3,900  Level Chicago Center

Login

Don't have an account? Register now (free) for customized features, flight alerts, and more!